createdAt,value
2019-01-15T05:00:26.221Z,0
2019-01-15T05:03:54.136Z,0
2019-01-15T05:07:22.006Z,0
2019-01-15T05:10:50.966Z,0
2019-01-15T05:14:18.866Z,0
2019-01-15T05:17:46.745Z,0
2019-01-15T05:21:14.617Z,0
2019-01-15T05:24:42.527Z,0
2019-01-15T05:28:11.448Z,0
2019-01-15T05:31:39.389Z,0
2019-01-15T05:35:07.282Z,0
2019-01-15T05:38:36.156Z,0
2019-01-15T05:42:04.685Z,0
2019-01-15T05:45:32.621Z,0
2019-01-15T05:49:02.619Z,0
2019-01-15T05:52:30.547Z,0
2019-01-15T05:55:59.408Z,0
2019-01-15T05:59:27.295Z,0
2019-01-15T06:02:55.177Z,0
2019-01-15T06:06:23.086Z,0
2019-01-15T06:09:50.966Z,0
2019-01-15T06:13:19.105Z,0
2019-01-15T06:16:46.990Z,0
2019-01-15T06:20:14.886Z,0
2019-01-15T06:23:42.781Z,0
2019-01-15T06:27:10.653Z,0
2019-01-15T06:30:38.540Z,0
2019-01-15T06:34:06.545Z,0
2019-01-15T06:37:34.433Z,0
2019-01-15T06:41:02.325Z,0
2019-01-15T06:44:30.263Z,0
2019-01-15T06:47:58.165Z,0
2019-01-15T06:51:26.039Z,0
2019-01-15T06:54:54.052Z,0
2019-01-15T06:58:21.892Z,0
2019-01-15T07:01:49.767Z,0
2019-01-15T07:05:18.645Z,0
2019-01-15T07:08:47.536Z,0
2019-01-15T07:12:15.408Z,0
2019-01-15T07:15:43.296Z,0
2019-01-15T07:19:11.273Z,0
2019-01-15T07:22:39.154Z,0
2019-01-15T07:26:08.040Z,0
2019-01-15T07:29:35.931Z,0
2019-01-15T07:33:03.800Z,0
2019-01-15T07:36:31.692Z,5.625
2019-01-15T07:39:59.663Z,5.625
2019-01-15T07:43:27.525Z,5.625
2019-01-15T07:47:02.451Z,5.625
2019-01-15T07:50:30.349Z,11.25
2019-01-15T07:53:58.223Z,28.125
2019-01-15T07:57:26.205Z,33.75
2019-01-15T08:00:54.101Z,39.375
2019-01-15T08:04:21.975Z,39.375
2019-01-15T08:07:49.863Z,45
2019-01-15T08:11:17.755Z,50.625
2019-01-15T08:14:45.624Z,56.25
2019-01-15T08:18:13.644Z,56.25
2019-01-15T08:21:41.504Z,61.875
2019-01-15T08:25:09.386Z,56.25
2019-01-15T08:28:37.277Z,45
2019-01-15T08:32:05.179Z,50.625
2019-01-15T08:35:33.072Z,73.125
2019-01-15T08:39:00.945Z,90
2019-01-15T08:42:28.965Z,95.625
2019-01-15T08:45:58.055Z,101.25
2019-01-15T08:49:25.936Z,101.25
2019-01-15T08:52:53.851Z,95.625
2019-01-15T08:56:21.938Z,101.25
2019-01-15T08:59:49.815Z,95.625
2019-01-15T09:03:18.805Z,95.625
2019-01-15T09:06:46.697Z,129.375
2019-01-15T09:10:16.569Z,118.125
2019-01-15T09:13:44.482Z,106.875
2019-01-15T09:17:14.365Z,106.875
2019-01-15T09:20:43.235Z,101.25
2019-01-15T09:24:11.229Z,78.75
2019-01-15T09:27:39.129Z,78.75
2019-01-15T09:31:07.012Z,45
2019-01-15T09:34:34.899Z,56.25
2019-01-15T09:38:02.786Z,67.5
2019-01-15T09:41:30.660Z,106.875
2019-01-15T09:44:59.631Z,90
2019-01-15T09:48:27.520Z,168.75
2019-01-15T09:51:55.398Z,146.25
2019-01-15T09:55:23.298Z,135
2019-01-15T09:58:51.195Z,106.875
2019-01-15T10:02:20.052Z,73.125
2019-01-15T10:05:48.049Z,73.125
2019-01-15T10:09:15.942Z,84.375
2019-01-15T10:12:43.812Z,95.625
2019-01-15T10:16:12.694Z,95.625
2019-01-15T10:19:41.575Z,84.375
2019-01-15T10:23:10.458Z,50.625
2019-01-15T10:26:38.429Z,28.125
2019-01-15T10:30:06.336Z,61.875
2019-01-15T10:33:34.221Z,73.125
2019-01-15T10:37:02.106Z,56.25
2019-01-15T10:40:31.047Z,61.875
2019-01-15T10:43:58.866Z,45
2019-01-15T10:47:27.815Z,67.5
2019-01-15T10:50:55.723Z,78.75
2019-01-15T10:54:23.581Z,84.375
2019-01-15T10:57:52.451Z,73.125
2019-01-15T11:01:20.346Z,78.75
2019-01-15T11:04:48.218Z,73.125
2019-01-15T11:08:16.212Z,84.375
2019-01-15T11:11:44.101Z,78.75
2019-01-15T11:15:11.970Z,61.875
2019-01-15T11:18:39.861Z,67.5
2019-01-15T11:22:07.752Z,73.125
2019-01-15T11:25:35.618Z,84.375
2019-01-15T11:29:03.630Z,84.375
2019-01-15T11:32:31.513Z,78.75
2019-01-15T11:35:59.386Z,67.5
2019-01-15T11:39:27.276Z,61.875
2019-01-15T11:42:55.166Z,73.125
2019-01-15T11:46:23.035Z,84.375
2019-01-15T11:49:50.938Z,90
2019-01-15T11:53:18.914Z,78.75
2019-01-15T11:56:46.782Z,61.875
2019-01-15T12:00:14.675Z,67.5
2019-01-15T12:03:42.566Z,78.75
2019-01-15T12:07:10.447Z,61.875
2019-01-15T12:10:38.335Z,73.125
2019-01-15T12:14:06.324Z,78.75
2019-01-15T12:17:34.195Z,95.625
2019-01-15T12:21:02.079Z,112.5
2019-01-15T12:24:29.971Z,118.125
2019-01-15T12:27:57.836Z,118.125
2019-01-15T12:31:25.736Z,78.75
2019-01-15T12:34:53.624Z,56.25
2019-01-15T12:38:21.583Z,39.375
2019-01-15T12:41:49.474Z,73.125
2019-01-15T12:45:20.351Z,90
2019-01-15T12:48:48.224Z,56.25
2019-01-15T12:52:16.116Z,67.5
2019-01-15T12:55:44.154Z,56.25
2019-01-15T12:59:11.973Z,50.625
2019-01-15T13:02:39.864Z,61.875
2019-01-15T13:06:07.758Z,50.625
2019-01-15T13:09:35.635Z,39.375
2019-01-15T13:13:03.541Z,45
2019-01-15T13:16:31.430Z,39.375
2019-01-15T13:19:59.383Z,33.75
2019-01-15T13:23:27.283Z,33.75
2019-01-15T13:26:55.169Z,22.5
2019-01-15T13:30:23.040Z,28.125
2019-01-15T13:33:50.924Z,28.125
2019-01-15T13:37:18.816Z,22.5
2019-01-15T13:40:46.751Z,22.5
2019-01-15T13:44:14.652Z,22.5
2019-01-15T13:47:42.540Z,28.125
2019-01-15T13:51:10.413Z,16.875
2019-01-15T13:54:38.305Z,28.125
2019-01-15T13:58:06.199Z,33.75
2019-01-15T14:01:35.174Z,28.125
2019-01-15T14:05:03.042Z,22.5
2019-01-15T14:08:30.930Z,16.875
2019-01-15T14:11:58.812Z,22.5
2019-01-15T14:15:26.706Z,16.875
2019-01-15T14:18:54.618Z,11.25
2019-01-15T14:22:22.485Z,22.5
2019-01-15T14:25:50.473Z,16.875
2019-01-15T14:29:18.367Z,11.25
2019-01-15T14:32:46.245Z,11.25
2019-01-15T14:36:14.124Z,11.25
2019-01-15T14:39:42.018Z,5.625
2019-01-15T14:43:09.889Z,5.625
2019-01-15T14:46:38.691Z,5.625
2019-01-15T14:50:07.297Z,0
2019-01-15T14:53:35.194Z,0
2019-01-15T14:57:03.079Z,0
2019-01-15T15:00:30.966Z,0
2019-01-15T15:03:59.209Z,0
2019-01-15T15:07:27.159Z,0
2019-01-15T15:10:55.054Z,0
2019-01-15T15:14:23.200Z,0
2019-01-15T15:17:51.075Z,0
2019-01-15T15:21:18.964Z,0
2019-01-15T15:24:46.855Z,0
2019-01-15T15:28:14.832Z,0
2019-01-15T15:31:42.682Z,0
2019-01-15T15:35:10.583Z,0
2019-01-15T15:38:38.460Z,0
2019-01-15T15:42:07.358Z,0
2019-01-15T15:45:35.282Z,0
2019-01-15T15:49:03.177Z,0
2019-01-15T15:52:32.116Z,0
2019-01-15T15:55:59.993Z,0
2019-01-15T15:59:28.089Z,0
2019-01-15T16:02:56.980Z,0
2019-01-15T16:06:24.871Z,0
2019-01-15T16:09:52.778Z,0
2019-01-15T16:13:20.658Z,0
2019-01-15T16:16:49.526Z,0
2019-01-15T16:20:17.418Z,0
2019-01-15T16:23:45.304Z,0
2019-01-15T16:27:13.189Z,0
2019-01-15T16:30:41.098Z,0
2019-01-15T16:34:08.968Z,0
2019-01-15T16:37:37.845Z,0
2019-01-15T16:41:05.740Z,0
2019-01-15T16:44:33.617Z,0
2019-01-15T16:48:01.513Z,0
2019-01-15T16:51:29.416Z,0
2019-01-15T16:54:57.321Z,0
2019-01-15T16:58:25.218Z,0
2019-01-15T17:01:53.155Z,0
2019-01-15T17:05:21.190Z,0
2019-01-15T17:08:49.057Z,0
2019-01-15T17:12:17.652Z,0
2019-01-15T17:15:45.733Z,0
2019-01-15T17:19:13.607Z,0
2019-01-15T17:22:41.500Z,0
2019-01-15T17:26:09.496Z,0
2019-01-15T17:29:37.372Z,0
2019-01-15T17:33:06.267Z,0
2019-01-15T17:36:34.165Z,0
2019-01-15T17:40:02.041Z,0
2019-01-15T17:43:29.939Z,0
2019-01-15T17:46:57.871Z,0
2019-01-15T17:50:25.744Z,0
2019-01-15T17:53:53.630Z,0
2019-01-15T17:57:21.623Z,0
2019-01-15T18:00:49.504Z,0
2019-01-15T18:04:20.013Z,0
2019-01-15T18:07:48.231Z,0
2019-01-15T18:11:16.094Z,0
2019-01-15T18:14:44.978Z,0
2019-01-15T18:18:12.868Z,0
2019-01-15T18:21:40.743Z,0
2019-01-15T18:25:08.641Z,0
2019-01-15T18:28:36.527Z,0
2019-01-15T18:32:06.424Z,0
2019-01-15T18:35:34.322Z,0
2019-01-15T18:39:02.211Z,0
2019-01-15T18:42:30.099Z,0
2019-01-15T18:45:57.990Z,0
2019-01-15T18:49:25.890Z,0
2019-01-15T18:52:53.762Z,0
2019-01-15T18:56:22.646Z,0
2019-01-15T18:59:50.625Z,0
2019-01-15T19:03:19.491Z,0
2019-01-15T19:06:47.389Z,0
2019-01-15T19:10:15.277Z,0
2019-01-15T19:13:44.150Z,0
2019-01-15T19:17:12.033Z,0
2019-01-15T19:20:39.924Z,0
2019-01-15T19:24:07.797Z,0
2019-01-15T19:27:35.689Z,0
2019-01-15T19:31:03.570Z,0
2019-01-15T19:34:31.448Z,0
2019-01-15T19:37:59.349Z,0
2019-01-15T19:41:27.236Z,0
2019-01-15T19:44:55.107Z,0
2019-01-15T19:48:22.997Z,0
2019-01-15T19:51:51.883Z,0
2019-01-15T19:55:19.795Z,0
2019-01-15T19:58:47.669Z,0
2019-01-15T20:02:15.556Z,0
2019-01-15T20:05:44.438Z,0
2019-01-15T20:09:12.316Z,0
2019-01-15T20:12:40.218Z,0
2019-01-15T20:16:08.103Z,0
2019-01-15T20:19:35.978Z,0
2019-01-15T20:23:03.870Z,0
2019-01-15T20:26:31.765Z,0
2019-01-15T20:29:59.624Z,0
2019-01-15T20:33:27.519Z,0
2019-01-15T20:36:55.437Z,0
2019-01-15T20:40:23.305Z,0
2019-01-15T20:43:51.206Z,0
2019-01-15T20:47:25.294Z,0
2019-01-15T20:50:49.934Z,0
2019-01-15T20:54:17.832Z,0
2019-01-15T20:57:45.741Z,0
2019-01-15T21:01:13.632Z,0
2019-01-15T21:04:41.518Z,0
2019-01-15T21:08:09.429Z,0
2019-01-15T21:11:37.301Z,0
2019-01-15T21:15:05.195Z,0
2019-01-15T21:18:33.081Z,0
2019-01-15T21:22:00.955Z,0
2019-01-15T21:25:28.845Z,0
2019-01-15T21:28:56.728Z,0
2019-01-15T21:32:25.597Z,0
2019-01-15T21:35:53.481Z,0
2019-01-15T21:39:21.377Z,0
2019-01-15T21:42:49.251Z,0
2019-01-15T21:46:18.147Z,0
2019-01-15T21:49:46.032Z,0
2019-01-15T21:53:14.897Z,0
2019-01-15T21:56:42.801Z,0
2019-01-15T22:00:10.687Z,0
2019-01-15T22:03:38.562Z,0
2019-01-15T22:07:07.437Z,0
2019-01-15T22:10:35.324Z,0
2019-01-15T22:14:03.211Z,0
2019-01-15T22:17:31.089Z,0
2019-01-15T22:20:58.982Z,0
2019-01-15T22:24:27.851Z,0
2019-01-15T22:27:55.742Z,0
2019-01-15T22:31:23.637Z,0
2019-01-15T22:34:51.536Z,0
2019-01-15T22:38:19.402Z,0
2019-01-15T22:41:47.292Z,0
2019-01-15T22:45:15.186Z,0
2019-01-15T22:48:43.051Z,0
2019-01-15T22:52:10.942Z,0
2019-01-15T22:55:38.829Z,0
2019-01-15T22:59:06.862Z,0
